Robstown, Texas
Current Conditions -  °F | °C
As of 11:15 AM on Friday 24 Oct 2014 (Local Time) from KRBO Reporting Station
Heavy Rain Heavy Rain  
Wind Chill: 77°   Ceiling: Unl
Heat Index: 79°   Visibility: 7mi
Dew Point: 65°   Wind: 0mph
Humidity: 65%   Direction: NA
Pressure: 30.17"   Gusts: NA
Location:  27.79°N, 97.66°W
Report Text: KRBO 241615Z AUTO 00000KT 7SM +RA CLR 25/18 A3017 RMK AO2 T02510182
Loading
Personal Weather Stations






























Interactive Weather Map
Tropical Storm Tracking
New forecast layout! Learn more

10-Day Weather Forecast

Advertisements
Track Severe Weather on mobile